createdAt,value
2019-05-06T00:00:09.757Z,5.40
2019-05-06T00:01:09.734Z,6.10
2019-05-06T00:02:09.708Z,6.00
2019-05-06T00:03:09.687Z,6.70
2019-05-06T00:04:09.662Z,6.10
2019-05-06T00:05:09.638Z,5.90
2019-05-06T00:06:09.620Z,6.70
2019-05-06T00:07:09.587Z,5.80
2019-05-06T00:08:09.565Z,5.90
2019-05-06T00:09:09.545Z,6.40
2019-05-06T00:10:09.535Z,5.90
2019-05-06T00:11:09.501Z,5.90
2019-05-06T00:12:09.467Z,6.10
2019-05-06T00:13:09.444Z,6.00
2019-05-06T00:14:09.432Z,5.60
2019-05-06T00:15:09.401Z,5.80
2019-05-06T00:16:09.387Z,5.50
2019-05-06T00:17:09.358Z,6.10
2019-05-06T00:18:09.331Z,6.10
2019-05-06T00:19:09.299Z,5.90
2019-05-06T00:20:09.276Z,5.80
2019-05-06T00:21:09.259Z,6.50
2019-05-06T00:22:09.227Z,6.00
2019-05-06T00:23:09.203Z,5.80
2019-05-06T00:24:09.178Z,5.70
2019-05-06T00:25:09.156Z,6.30
2019-05-06T00:26:09.131Z,6.50
2019-05-06T00:27:09.107Z,6.50
2019-05-06T00:28:09.081Z,6.00
2019-05-06T00:29:09.057Z,5.80
2019-05-06T00:30:09.043Z,5.60
2019-05-06T00:31:13.132Z,5.70
2019-05-06T00:32:08.984Z,6.20
2019-05-06T00:33:08.976Z,6.10
2019-05-06T00:34:08.936Z,5.90
2019-05-06T00:35:08.911Z,5.90
2019-05-06T00:36:08.889Z,5.60
2019-05-06T00:37:08.865Z,6.10
2019-05-06T00:38:08.840Z,6.40
2019-05-06T00:39:08.829Z,6.30
2019-05-06T00:40:08.794Z,5.70
2019-05-06T00:41:08.774Z,6.00
2019-05-06T00:42:08.742Z,6.00
2019-05-06T00:43:08.717Z,5.90
2019-05-06T00:44:08.693Z,7.30
2019-05-06T00:45:08.679Z,6.30
2019-05-06T00:46:08.645Z,5.70
2019-05-06T00:47:08.624Z,5.70
2019-05-06T00:48:08.597Z,6.20
2019-05-06T00:49:08.581Z,5.40
2019-05-06T00:50:08.548Z,5.90
2019-05-06T00:51:08.522Z,5.80
2019-05-06T00:52:08.499Z,6.10
2019-05-06T00:53:08.484Z,6.00
2019-05-06T00:54:08.458Z,5.90
2019-05-06T00:55:08.425Z,5.90
2019-05-06T00:56:08.518Z,6.10
2019-05-06T00:57:08.381Z,6.00
2019-05-06T00:58:08.365Z,5.90
2019-05-06T00:59:08.335Z,5.90
2019-05-06T01:00:08.313Z,6.30
2019-05-06T01:01:08.281Z,6.20
2019-05-06T01:02:08.257Z,6.00
2019-05-06T01:03:08.229Z,6.50
2019-05-06T01:04:08.207Z,6.80
2019-05-06T01:05:08.182Z,6.70
2019-05-06T01:06:08.156Z,6.50
2019-05-06T01:07:08.140Z,6.20
2019-05-06T01:08:08.110Z,6.30
2019-05-06T01:09:08.085Z,6.10
2019-05-06T01:10:08.061Z,6.80
2019-05-06T01:11:08.036Z,6.30
2019-05-06T01:12:08.011Z,6.30
2019-05-06T01:13:07.986Z,6.50
2019-05-06T01:14:07.964Z,6.80
2019-05-06T01:15:07.937Z,6.50
2019-05-06T01:16:07.914Z,6.60
2019-05-06T01:17:07.892Z,7.30
2019-05-06T01:18:07.865Z,6.40
2019-05-06T01:19:07.841Z,6.30
2019-05-06T01:20:07.816Z,6.40
2019-05-06T01:21:07.790Z,7.40
2019-05-06T01:22:07.767Z,6.20
2019-05-06T01:23:07.741Z,6.40
2019-05-06T01:24:07.717Z,6.50
2019-05-06T01:25:07.694Z,7.70
2019-05-06T01:26:07.669Z,6.90
2019-05-06T01:27:07.662Z,6.60
2019-05-06T01:28:07.619Z,6.50
2019-05-06T01:29:07.594Z,6.80
2019-05-06T01:30:07.569Z,7.50
2019-05-06T01:31:07.544Z,6.60
2019-05-06T01:32:07.529Z,7.40
2019-05-06T01:33:07.498Z,6.70
2019-05-06T01:34:07.475Z,7.10
2019-05-06T01:35:07.547Z,8.10
2019-05-06T01:36:07.422Z,7.00
2019-05-06T01:37:07.398Z,7.20
2019-05-06T01:38:07.383Z,7.50
2019-05-06T01:39:07.349Z,6.90
2019-05-06T01:40:07.323Z,7.20
2019-05-06T01:41:07.302Z,6.90
2019-05-06T01:42:07.275Z,7.60
2019-05-06T01:43:07.253Z,7.60
2019-05-06T01:44:07.234Z,6.80
2019-05-06T01:45:07.206Z,7.70
2019-05-06T01:46:07.179Z,8.40
2019-05-06T01:47:07.152Z,7.60
2019-05-06T01:48:07.131Z,7.10
2019-05-06T01:49:07.112Z,7.20
2019-05-06T01:50:07.079Z,7.00
2019-05-06T01:51:07.065Z,6.80
2019-05-06T01:52:07.035Z,7.10
2019-05-06T01:53:07.007Z,7.30
2019-05-06T01:54:06.982Z,7.50
2019-05-06T01:55:06.956Z,7.20
2019-05-06T01:56:06.931Z,7.60
2019-05-06T01:57:06.909Z,7.90
2019-05-06T01:58:06.895Z,7.70
2019-05-06T01:59:06.874Z,8.10
2019-05-06T02:00:06.894Z,7.90
2019-05-06T02:01:06.809Z,7.60
2019-05-06T02:02:06.787Z,7.80
2019-05-06T02:03:06.759Z,7.90
2019-05-06T02:04:06.736Z,7.90
2019-05-06T02:05:06.710Z,8.10
2019-05-06T02:06:06.686Z,7.90
2019-05-06T02:07:06.661Z,7.70
2019-05-06T02:08:06.637Z,7.80
2019-05-06T02:09:06.612Z,7.60
2019-05-06T02:10:06.587Z,8.00
2019-05-06T02:11:06.562Z,7.60
2019-05-06T02:12:06.539Z,7.90
2019-05-06T02:13:06.514Z,8.30
2019-05-06T02:14:06.490Z,7.70
2019-05-06T02:15:06.474Z,7.90
2019-05-06T02:16:06.440Z,7.50
2019-05-06T02:17:06.415Z,7.50
2019-05-06T02:18:06.390Z,7.60
2019-05-06T02:19:06.373Z,7.70
2019-05-06T02:20:06.343Z,7.60
2019-05-06T02:21:06.319Z,7.20
2019-05-06T02:22:06.292Z,8.20
2019-05-06T02:23:06.266Z,8.00
2019-05-06T02:24:06.242Z,7.80
2019-05-06T02:25:06.216Z,7.90
2019-05-06T02:26:06.195Z,7.90
2019-05-06T02:27:06.169Z,8.10
2019-05-06T02:28:06.146Z,8.70
2019-05-06T02:29:06.121Z,8.10
2019-05-06T02:30:06.100Z,9.20
2019-05-06T02:31:06.076Z,8.60
2019-05-06T02:32:20.966Z,8.20
2019-05-06T02:33:06.036Z,8.70
2019-05-06T02:34:06.001Z,8.90
2019-05-06T02:35:05.970Z,9.00
2019-05-06T02:36:06.602Z,9.30
2019-05-06T02:37:06.465Z,8.90
2019-05-06T02:38:05.896Z,8.90
2019-05-06T02:39:05.872Z,9.20
2019-05-06T02:40:05.849Z,9.00
2019-05-06T02:41:05.824Z,9.10
2019-05-06T02:42:05.805Z,8.50
2019-05-06T02:43:05.771Z,8.90
2019-05-06T02:44:09.774Z,8.60
2019-05-06T02:45:05.727Z,9.40
2019-05-06T02:46:05.699Z,9.40
2019-05-06T02:47:05.676Z,9.30
2019-05-06T02:48:05.656Z,9.70
2019-05-06T02:49:05.624Z,9.40
2019-05-06T02:50:05.623Z,9.70
2019-05-06T02:51:05.573Z,9.50
2019-05-06T02:52:05.559Z,8.50
2019-05-06T02:53:05.524Z,9.40
2019-05-06T02:54:05.499Z,8.80
2019-05-06T02:55:06.422Z,9.10
2019-05-06T02:56:05.450Z,10.10
2019-05-06T02:57:05.427Z,9.20
2019-05-06T02:58:05.401Z,9.30
2019-05-06T02:59:05.374Z,8.90
2019-05-06T03:00:05.533Z,9.00
2019-05-06T03:01:05.334Z,8.60
2019-05-06T03:02:05.307Z,9.00
2019-05-06T03:03:05.273Z,9.00
2019-05-06T03:04:05.276Z,8.40
2019-05-06T03:05:05.246Z,8.80
2019-05-06T03:06:05.230Z,9.70
2019-05-06T03:07:05.175Z,8.50
2019-05-06T03:08:05.168Z,9.30
2019-05-06T03:09:05.127Z,9.60
2019-05-06T03:10:05.115Z,8.90
2019-05-06T03:11:05.080Z,10.00
2019-05-06T03:12:05.051Z,8.80
2019-05-06T03:13:05.031Z,9.30
2019-05-06T03:14:05.005Z,8.90
2019-05-06T03:15:04.989Z,9.40
2019-05-06T03:16:05.835Z,9.20
2019-05-06T03:17:04.927Z,8.80
2019-05-06T03:18:04.902Z,9.10
2019-05-06T03:19:04.879Z,8.90
2019-05-06T03:20:04.875Z,9.20
2019-05-06T03:21:04.850Z,9.10
2019-05-06T03:22:04.806Z,8.90
2019-05-06T03:23:04.776Z,8.60
2019-05-06T03:24:07.349Z,8.50
2019-05-06T03:25:06.854Z,8.90
2019-05-06T03:26:06.710Z,8.80
2019-05-06T03:27:05.048Z,9.00
2019-05-06T03:28:04.655Z,8.20
2019-05-06T03:29:04.628Z,8.60
2019-05-06T03:30:04.661Z,9.40
2019-05-06T03:31:06.915Z,8.40
2019-05-06T03:32:07.214Z,8.30
2019-05-06T03:34:28.077Z,8.60
2019-05-06T03:35:24.835Z,8.70
2019-05-06T03:36:15.523Z,9.00
2019-05-06T03:37:07.479Z,8.40
2019-05-06T03:38:04.404Z,9.10
2019-05-06T03:39:04.381Z,8.80
2019-05-06T03:40:04.359Z,9.40
2019-05-06T03:41:04.335Z,8.50
2019-05-06T03:42:04.933Z,8.40
2019-05-06T03:43:04.279Z,9.20
2019-05-06T03:44:04.263Z,9.10
2019-05-06T03:45:04.555Z,9.00
2019-05-06T03:46:04.703Z,8.90
2019-05-06T03:47:05.655Z,8.80
2019-05-06T03:48:05.876Z,9.00
2019-05-06T03:49:04.136Z,9.30
2019-05-06T03:50:04.821Z,9.50
2019-05-06T03:51:04.373Z,9.20
2019-05-06T03:52:04.056Z,9.20
2019-05-06T03:53:04.041Z,8.90
2019-05-06T03:54:04.022Z,8.50
2019-05-06T03:55:04.284Z,9.30
2019-05-06T03:56:03.969Z,9.20
2019-05-06T03:57:03.938Z,9.50
2019-05-06T03:58:04.135Z,9.50
2019-05-06T03:59:03.937Z,8.80
2019-05-06T04:00:04.922Z,9.20
2019-05-06T04:01:04.006Z,9.00
2019-05-06T04:02:05.221Z,8.90
2019-05-06T04:03:03.781Z,9.10
2019-05-06T04:04:04.037Z,8.90
2019-05-06T04:05:04.289Z,9.70
2019-05-06T04:06:04.432Z,9.00
2019-05-06T04:07:03.690Z,9.30
2019-05-06T04:08:04.047Z,9.50
2019-05-06T04:09:03.891Z,9.80
2019-05-06T04:10:03.995Z,9.50
2019-05-06T04:11:03.589Z,10.30
2019-05-06T04:12:03.792Z,9.70
2019-05-06T04:13:04.261Z,10.30
2019-05-06T04:14:03.514Z,10.10
2019-05-06T04:15:04.240Z,10.70
2019-05-06T04:16:03.917Z,11.00
2019-05-06T04:17:03.493Z,10.30
2019-05-06T04:18:04.036Z,10.20
2019-05-06T04:19:04.228Z,9.40
2019-05-06T04:20:04.149Z,10.00
2019-05-06T04:21:03.829Z,10.40
2019-05-06T04:22:03.774Z,11.10
2019-05-06T04:23:05.988Z,11.70
2019-05-06T04:24:04.069Z,10.50
2019-05-06T04:25:04.218Z,11.30
2019-05-06T04:26:03.716Z,9.90
2019-05-06T04:27:03.373Z,10.30
2019-05-06T04:28:03.157Z,11.30
2019-05-06T04:29:04.066Z,10.70
2019-05-06T04:30:04.647Z,9.90
2019-05-06T04:31:03.101Z,11.10
2019-05-06T04:32:03.573Z,10.30
2019-05-06T04:33:03.464Z,10.60
2019-05-06T04:34:13.454Z,11.10
2019-05-06T04:35:04.404Z,10.10
2019-05-06T04:36:03.848Z,10.60
2019-05-06T04:37:03.589Z,10.20
2019-05-06T04:38:03.317Z,11.20
2019-05-06T04:39:04.267Z,11.00
2019-05-06T04:40:04.435Z,10.20
2019-05-06T04:41:03.188Z,10.70
2019-05-06T04:42:03.491Z,10.90
2019-05-06T04:43:03.544Z,10.70
2019-05-06T04:44:03.026Z,11.00
2019-05-06T04:45:04.534Z,10.20
2019-05-06T04:46:03.332Z,10.30
2019-05-06T04:47:05.290Z,10.90
2019-05-06T04:48:03.568Z,10.10
2019-05-06T04:49:03.980Z,10.00
2019-05-06T04:50:04.735Z,10.60
2019-05-06T04:51:03.317Z,10.50
2019-05-06T04:52:03.625Z,10.80
2019-05-06T04:53:05.008Z,10.10
2019-05-06T04:54:04.235Z,10.20
2019-05-06T04:55:03.488Z,10.00
2019-05-06T04:56:03.940Z,10.90
2019-05-06T04:57:05.143Z,9.60
2019-05-06T04:58:04.051Z,9.90
2019-05-06T04:59:05.794Z,10.20
2019-05-06T05:00:04.031Z,10.20
2019-05-06T05:01:04.105Z,9.90
2019-05-06T05:02:02.744Z,10.60
2019-05-06T05:03:03.022Z,10.20
2019-05-06T05:04:03.516Z,10.70
2019-05-06T05:05:04.231Z,10.90
2019-05-06T05:06:05.627Z,10.40
2019-05-06T05:07:03.369Z,10.10
2019-05-06T05:08:02.613Z,10.30
2019-05-06T05:09:02.855Z,10.20
2019-05-06T05:10:03.492Z,9.40
2019-05-06T05:11:03.578Z,10.00
2019-05-06T05:12:02.776Z,9.90
2019-05-06T05:13:03.587Z,10.10
2019-05-06T05:14:02.857Z,9.80
2019-05-06T05:15:03.278Z,10.20
2019-05-06T05:16:02.377Z,9.70
2019-05-06T05:17:02.267Z,9.80
2019-05-06T05:18:03.187Z,9.50
2019-05-06T05:19:02.760Z,10.20
2019-05-06T05:20:02.176Z,10.50
2019-05-06T05:21:02.392Z,9.80
2019-05-06T05:22:02.827Z,9.70
2019-05-06T05:23:02.314Z,9.70
2019-05-06T05:24:02.107Z,9.70
2019-05-06T05:25:03.508Z,9.30
2019-05-06T05:26:02.899Z,9.90
2019-05-06T05:27:03.200Z,9.40
2019-05-06T05:28:02.207Z,10.10
2019-05-06T05:29:02.845Z,10.20
2019-05-06T05:30:02.031Z,9.90
2019-05-06T05:31:03.054Z,9.70
2019-05-06T05:32:02.180Z,10.10
2019-05-06T05:33:02.588Z,10.10
2019-05-06T05:34:02.066Z,10.10
2019-05-06T05:35:02.100Z,10.60
2019-05-06T05:36:02.109Z,10.50
2019-05-06T05:37:03.018Z,10.30
2019-05-06T05:38:03.031Z,10.00
2019-05-06T05:39:03.376Z,10.80
2019-05-06T05:40:03.079Z,10.80
2019-05-06T05:41:03.012Z,10.80
2019-05-06T05:42:02.978Z,10.90
2019-05-06T05:43:02.937Z,10.60
2019-05-06T05:44:02.388Z,10.40
2019-05-06T05:45:02.728Z,9.90
2019-05-06T05:46:02.943Z,10.40
2019-05-06T05:47:03.281Z,10.60
2019-05-06T05:48:02.853Z,10.90
2019-05-06T05:49:02.853Z,10.30
2019-05-06T05:50:03.069Z,10.40
2019-05-06T05:51:03.218Z,10.50
2019-05-06T05:52:03.213Z,9.80
2019-05-06T05:53:02.439Z,10.60
2019-05-06T05:54:02.203Z,11.00
2019-05-06T05:55:02.713Z,10.50
2019-05-06T05:56:02.581Z,10.10
2019-05-06T05:57:02.391Z,10.40
2019-05-06T05:58:03.207Z,10.10
2019-05-06T05:59:03.036Z,10.30
2019-05-06T06:00:00.889Z,10.30
2019-05-06T06:01:00.874Z,9.70
2019-05-06T06:02:03.541Z,9.70
2019-05-06T06:03:02.746Z,11.10
2019-05-06T06:04:03.169Z,11.10
2019-05-06T06:05:02.488Z,10.80
2019-05-06T06:06:02.945Z,10.60
2019-05-06T06:07:02.613Z,10.30
2019-05-06T06:08:02.896Z,11.10
2019-05-06T06:09:02.871Z,10.80
2019-05-06T06:10:02.689Z,11.10
2019-05-06T06:11:00.622Z,10.90
2019-05-06T06:12:02.661Z,10.40
2019-05-06T06:13:02.130Z,10.60
2019-05-06T06:14:02.870Z,11.20
2019-05-06T06:15:02.231Z,11.30
2019-05-06T06:16:02.756Z,10.20
2019-05-06T06:17:02.034Z,11.20
2019-05-06T06:18:02.455Z,10.70
2019-05-06T06:19:00.428Z,11.30
2019-05-06T06:20:02.515Z,11.20
2019-05-06T06:21:15.118Z,11.70
2019-05-06T06:22:02.603Z,10.60
2019-05-06T06:23:00.334Z,11.30
2019-05-06T06:24:02.683Z,10.50
2019-05-06T06:25:00.294Z,11.10
2019-05-06T06:26:03.697Z,11.20
2019-05-06T06:27:00.250Z,11.70
2019-05-06T06:28:02.556Z,12.40
2019-05-06T06:29:00.299Z,11.70
2019-05-06T06:30:02.226Z,11.40
2019-05-06T06:31:00.147Z,11.50
2019-05-06T06:32:00.122Z,11.60
2019-05-06T06:33:02.410Z,11.60
2019-05-06T06:34:01.981Z,12.00
2019-05-06T06:35:08.411Z,11.10
2019-05-06T06:36:00.028Z,12.10
2019-05-06T06:37:02.468Z,12.80
2019-05-06T06:37:59.983Z,11.10
2019-05-06T06:39:01.997Z,11.30
2019-05-06T06:40:01.778Z,12.70
2019-05-06T06:40:59.911Z,12.00
2019-05-06T06:41:59.894Z,11.60
2019-05-06T06:43:02.042Z,11.70
2019-05-06T06:44:02.121Z,11.30
2019-05-06T06:44:59.820Z,10.90
2019-05-06T06:45:59.799Z,11.60
2019-05-06T06:47:01.948Z,11.40
2019-05-06T06:47:59.959Z,12.00
2019-05-06T06:48:59.732Z,12.00
2019-05-06T06:49:59.703Z,11.90
2019-05-06T06:50:59.699Z,11.10
2019-05-06T06:51:59.667Z,11.40
2019-05-06T06:52:59.643Z,11.20
2019-05-06T06:53:59.621Z,10.60
2019-05-06T06:54:59.589Z,11.00
2019-05-06T06:56:01.957Z,12.00
2019-05-06T06:57:08.357Z,11.00
2019-05-06T06:57:59.526Z,10.90
2019-05-06T06:58:59.514Z,11.00
2019-05-06T06:59:59.484Z,10.90
2019-05-06T07:00:59.460Z,11.40
2019-05-06T07:01:59.442Z,11.10
2019-05-06T07:02:59.414Z,11.50
2019-05-06T07:03:59.408Z,11.80
2019-05-06T07:04:59.372Z,12.30
2019-05-06T07:05:59.359Z,11.00
2019-05-06T07:06:59.342Z,10.60
2019-05-06T07:07:59.311Z,11.70
2019-05-06T07:08:59.290Z,11.40
2019-05-06T07:09:59.277Z,10.80
2019-05-06T07:10:59.246Z,11.00
2019-05-06T07:11:59.225Z,11.00
2019-05-06T07:12:59.210Z,10.90
2019-05-06T07:13:59.199Z,11.30
2019-05-06T07:14:59.163Z,10.80
2019-05-06T07:15:59.143Z,11.30
2019-05-06T07:16:59.122Z,10.90
2019-05-06T07:17:59.105Z,10.60
2019-05-06T07:18:59.087Z,11.40
2019-05-06T07:19:59.062Z,10.70
2019-05-06T07:20:59.192Z,13.00
2019-05-06T07:21:59.040Z,11.90
2019-05-06T07:22:59.001Z,10.90
2019-05-06T07:23:58.986Z,11.60
2019-05-06T07:24:58.963Z,11.50
2019-05-06T07:25:58.944Z,10.70
2019-05-06T07:26:58.922Z,10.50
2019-05-06T07:27:58.904Z,11.50
2019-05-06T07:28:59.302Z,10.80
2019-05-06T07:29:58.871Z,10.50
2019-05-06T07:31:15.044Z,10.70
2019-05-06T07:31:58.831Z,10.80
2019-05-06T07:33:00.600Z,10.90
2019-05-06T07:33:58.793Z,11.10
2019-05-06T07:34:58.792Z,10.50
2019-05-06T07:35:58.745Z,10.30
2019-05-06T07:36:58.730Z,10.50
2019-05-06T07:37:58.725Z,10.60
2019-05-06T07:38:58.690Z,10.60
2019-05-06T07:39:58.668Z,10.80
2019-05-06T07:40:58.650Z,11.00
2019-05-06T07:41:58.631Z,10.50
2019-05-06T07:42:58.616Z,10.80
2019-05-06T07:43:58.604Z,10.50
2019-05-06T07:44:58.573Z,10.40
2019-05-06T07:45:58.558Z,10.90
2019-05-06T07:46:58.535Z,10.70
2019-05-06T07:47:58.519Z,10.10
2019-05-06T07:48:58.496Z,10.60
2019-05-06T07:49:58.485Z,9.60
2019-05-06T07:50:58.558Z,10.10
2019-05-06T07:51:58.445Z,9.60
2019-05-06T07:52:58.419Z,9.80
2019-05-06T07:53:58.408Z,10.10
2019-05-06T07:54:58.381Z,9.50
2019-05-06T07:55:58.365Z,9.70
2019-05-06T07:56:58.363Z,10.40
2019-05-06T07:57:58.325Z,8.90
2019-05-06T07:58:58.311Z,9.40
2019-05-06T07:59:58.302Z,9.40
2019-05-06T08:00:58.279Z,9.70
2019-05-06T08:01:58.252Z,9.10
2019-05-06T08:02:58.235Z,9.60
2019-05-06T08:03:58.215Z,9.50
2019-05-06T08:04:58.200Z,9.60
2019-05-06T08:05:58.840Z,8.30
2019-05-06T08:06:58.161Z,8.80
2019-05-06T08:07:58.157Z,8.80
2019-05-06T08:08:58.121Z,8.80
2019-05-06T08:09:58.109Z,9.30
2019-05-06T08:10:58.084Z,8.30
2019-05-06T08:11:58.071Z,9.10
2019-05-06T08:12:58.050Z,9.20
2019-05-06T08:13:58.033Z,8.00
2019-05-06T08:14:58.020Z,8.30
2019-05-06T08:15:57.995Z,8.30
2019-05-06T08:16:57.978Z,8.60
2019-05-06T08:17:57.961Z,8.80
2019-05-06T08:18:57.942Z,8.80
2019-05-06T08:19:57.925Z,8.90
2019-05-06T08:20:57.909Z,8.90
2019-05-06T08:21:57.896Z,8.40
2019-05-06T08:22:57.872Z,8.20
2019-05-06T08:23:57.969Z,8.80
2019-05-06T08:24:57.844Z,8.50
2019-05-06T08:26:10.101Z,8.20
2019-05-06T08:26:57.803Z,8.40
2019-05-06T08:27:57.797Z,9.20
2019-05-06T08:28:57.779Z,8.10
2019-05-06T08:29:57.755Z,8.10
2019-05-06T08:30:57.736Z,8.10
2019-05-06T08:31:57.721Z,10.00
2019-05-06T08:32:57.710Z,14.10
2019-05-06T08:33:57.686Z,8.00
2019-05-06T08:34:57.669Z,7.60
2019-05-06T08:36:08.970Z,7.60
2019-05-06T08:36:57.635Z,7.10
2019-05-06T08:37:57.624Z,6.80
2019-05-06T08:38:57.611Z,6.00
2019-05-06T08:39:57.595Z,5.10
2019-05-06T08:40:57.584Z,5.10
2019-05-06T08:41:57.549Z,5.50
2019-05-06T08:42:57.581Z,4.90
2019-05-06T08:43:57.524Z,4.90
2019-05-06T08:44:57.498Z,5.20
2019-05-06T08:45:57.478Z,5.20
2019-05-06T08:46:57.471Z,4.40
2019-05-06T08:47:57.454Z,4.20
2019-05-06T08:48:57.424Z,4.40
2019-05-06T08:49:57.408Z,4.50
2019-05-06T08:50:57.391Z,4.40
2019-05-06T08:51:57.371Z,5.30
2019-05-06T08:52:57.354Z,4.60
2019-05-06T08:53:57.336Z,5.30
2019-05-06T08:54:57.321Z,5.30
2019-05-06T08:55:57.299Z,5.00
2019-05-06T08:56:57.286Z,5.30
2019-05-06T08:57:57.265Z,5.00
2019-05-06T08:58:57.249Z,4.80
2019-05-06T08:59:57.224Z,4.50
2019-05-06T09:00:57.672Z,4.30
2019-05-06T09:01:57.194Z,5.10
2019-05-06T09:02:57.169Z,4.60
2019-05-06T09:04:08.342Z,4.90
2019-05-06T09:04:57.134Z,4.70
2019-05-06T09:05:57.130Z,4.30
2019-05-06T09:06:57.095Z,4.30
2019-05-06T09:07:57.084Z,4.10
2019-05-06T09:08:57.186Z,3.80
2019-05-06T09:09:57.043Z,4.10
2019-05-06T09:10:57.038Z,3.60
2019-05-06T09:11:57.010Z,4.10
2019-05-06T09:12:56.991Z,4.00
2019-05-06T09:13:56.974Z,3.80
2019-05-06T09:14:56.965Z,4.20
2019-05-06T09:15:56.971Z,3.90
2019-05-06T09:16:56.944Z,4.10
2019-05-06T09:17:56.915Z,3.80
2019-05-06T09:18:56.899Z,4.30
2019-05-06T09:19:56.884Z,4.60
2019-05-06T09:20:56.866Z,4.30
2019-05-06T09:21:56.851Z,4.20
2019-05-06T09:22:56.836Z,4.00
2019-05-06T09:23:56.826Z,3.70
2019-05-06T09:24:56.813Z,3.70
2019-05-06T09:25:56.799Z,4.00
2019-05-06T09:26:56.777Z,4.20
2019-05-06T09:27:56.762Z,3.50
2019-05-06T09:28:56.849Z,3.60
2019-05-06T09:29:56.730Z,3.60
2019-05-06T09:30:56.717Z,3.80
2019-05-06T09:31:56.704Z,3.40
2019-05-06T09:32:56.681Z,3.80
2019-05-06T09:33:56.667Z,3.30
2019-05-06T09:34:56.652Z,3.90
2019-05-06T09:35:56.638Z,3.80
2019-05-06T09:36:57.026Z,4.10
2019-05-06T09:37:56.616Z,4.30
2019-05-06T09:38:56.597Z,3.60
2019-05-06T09:39:56.585Z,3.50
2019-05-06T09:40:56.571Z,4.00
2019-05-06T09:41:58.021Z,3.70
2019-05-06T09:42:56.561Z,4.30
2019-05-06T09:43:56.524Z,3.80
2019-05-06T09:44:56.517Z,4.30
2019-05-06T09:45:56.497Z,4.20
2019-05-06T09:46:56.482Z,4.50
2019-05-06T09:47:56.469Z,4.40
2019-05-06T09:48:56.456Z,4.60
2019-05-06T09:49:56.444Z,4.40
2019-05-06T09:50:56.432Z,4.20
2019-05-06T09:51:56.833Z,4.60
2019-05-06T09:52:56.409Z,3.90
2019-05-06T09:53:56.406Z,4.30
2019-05-06T09:54:56.386Z,4.30
2019-05-06T09:55:56.385Z,4.00
2019-05-06T09:56:56.381Z,4.10
2019-05-06T09:57:56.364Z,4.70
2019-05-06T09:58:56.357Z,4.60
2019-05-06T09:59:56.345Z,4.30
2019-05-06T10:00:56.325Z,4.90
2019-05-06T10:01:56.317Z,4.90
2019-05-06T10:02:56.310Z,4.70
2019-05-06T10:03:56.302Z,5.00
2019-05-06T10:04:56.287Z,4.60
2019-05-06T10:05:56.285Z,4.60
2019-05-06T10:06:59.963Z,3.70
2019-05-06T10:07:56.268Z,3.40
2019-05-06T10:08:56.260Z,3.50
2019-05-06T10:09:56.246Z,3.90
2019-05-06T10:10:59.715Z,4.00
2019-05-06T10:11:56.229Z,4.30
2019-05-06T10:12:56.461Z,4.40
2019-05-06T10:13:56.217Z,4.90
2019-05-06T10:14:56.211Z,4.10
2019-05-06T10:15:57.752Z,4.60
2019-05-06T10:16:56.202Z,4.20
2019-05-06T10:17:56.194Z,4.20
2019-05-06T10:18:56.186Z,4.30
2019-05-06T10:19:56.184Z,4.40
2019-05-06T10:20:56.183Z,4.60
2019-05-06T10:21:56.168Z,4.60
2019-05-06T10:22:56.151Z,4.90
2019-05-06T10:23:56.166Z,4.60
2019-05-06T10:24:56.188Z,4.80
2019-05-06T10:25:56.144Z,4.60
2019-05-06T10:26:56.527Z,4.60
2019-05-06T10:27:57.306Z,4.80
2019-05-06T10:28:56.117Z,4.90
2019-05-06T10:29:56.096Z,4.80
2019-05-06T10:30:56.085Z,4.50
2019-05-06T10:31:56.086Z,4.50
2019-05-06T10:32:56.081Z,4.70
2019-05-06T10:33:56.064Z,4.50
2019-05-06T10:34:56.047Z,5.10
2019-05-06T10:35:56.052Z,4.80
2019-05-06T10:37:11.297Z,5.10
2019-05-06T10:37:56.019Z,5.00
2019-05-06T10:38:56.002Z,4.90
2019-05-06T10:39:55.993Z,5.40
2019-05-06T10:41:03.612Z,5.20
2019-05-06T10:41:55.969Z,4.80
2019-05-06T10:42:55.956Z,5.00
2019-05-06T10:43:55.945Z,5.30
2019-05-06T10:44:55.941Z,4.90
2019-05-06T10:45:55.920Z,5.40
2019-05-06T10:46:55.908Z,4.90
2019-05-06T10:47:55.902Z,5.50
2019-05-06T10:48:55.883Z,4.90
2019-05-06T10:49:55.873Z,5.10
2019-05-06T10:50:55.860Z,4.90
2019-05-06T10:51:55.948Z,4.80
2019-05-06T10:52:55.849Z,5.10
2019-05-06T10:53:55.824Z,5.20
2019-05-06T10:54:55.811Z,5.00
2019-05-06T10:55:55.800Z,5.30
2019-05-06T10:56:57.330Z,4.70
2019-05-06T10:57:55.779Z,4.90
2019-05-06T10:58:55.768Z,5.40
2019-05-06T10:59:55.754Z,6.00
2019-05-06T11:00:55.746Z,5.40
2019-05-06T11:01:55.738Z,5.90
2019-05-06T11:02:55.718Z,5.70
2019-05-06T11:03:55.709Z,5.60
2019-05-06T11:04:55.695Z,5.60
2019-05-06T11:05:55.687Z,5.80
2019-05-06T11:06:55.673Z,5.10
2019-05-06T11:07:55.659Z,5.00
2019-05-06T11:08:55.646Z,5.00
2019-05-06T11:09:55.633Z,4.50
2019-05-06T11:10:55.621Z,4.80
2019-05-06T11:11:55.615Z,5.10
2019-05-06T11:12:55.596Z,4.90
2019-05-06T11:13:55.591Z,4.50
2019-05-06T11:14:55.918Z,5.40
2019-05-06T11:15:55.808Z,4.70
2019-05-06T11:16:55.544Z,5.40
2019-05-06T11:17:55.533Z,5.30
2019-05-06T11:18:55.517Z,5.00
2019-05-06T11:19:55.511Z,5.60
2019-05-06T11:20:56.340Z,5.50
2019-05-06T11:21:55.478Z,6.00
2019-05-06T11:22:55.464Z,5.90
2019-05-06T11:23:55.450Z,6.00
2019-05-06T11:24:55.439Z,6.00
2019-05-06T11:25:58.865Z,5.20
2019-05-06T11:26:55.474Z,5.70
2019-05-06T11:27:55.397Z,5.80
2019-05-06T11:28:55.393Z,5.80
2019-05-06T11:29:55.378Z,6.10
2019-05-06T11:30:55.356Z,6.00
2019-05-06T11:31:55.378Z,6.00
2019-05-06T11:32:55.381Z,6.90
2019-05-06T11:33:55.316Z,6.00
2019-05-06T11:34:55.301Z,5.80
2019-05-06T11:35:55.285Z,6.00
2019-05-06T11:36:55.289Z,5.70
2019-05-06T11:37:55.313Z,5.00
2019-05-06T11:38:55.241Z,5.40
2019-05-06T11:39:55.250Z,5.40
2019-05-06T11:40:55.216Z,5.60
2019-05-06T11:42:15.281Z,5.80
2019-05-06T11:42:55.192Z,5.70
2019-05-06T11:43:55.173Z,5.40
2019-05-06T11:44:55.159Z,5.80
2019-05-06T11:45:55.167Z,5.70
2019-05-06T11:46:55.127Z,5.40
2019-05-06T11:47:55.752Z,5.30
2019-05-06T11:48:55.101Z,4.90
2019-05-06T11:49:56.320Z,5.40
2019-05-06T11:50:55.072Z,5.20
2019-05-06T11:51:55.072Z,5.30
2019-05-06T11:52:56.000Z,5.70
2019-05-06T11:53:55.037Z,5.80
2019-05-06T11:54:55.019Z,6.10
2019-05-06T11:55:55.192Z,5.90
2019-05-06T11:56:58.258Z,6.10
2019-05-06T11:57:54.974Z,6.30
2019-05-06T11:58:54.966Z,6.40
2019-05-06T11:59:54.953Z,6.10
2019-05-06T12:00:54.965Z,6.30
2019-05-06T12:01:54.918Z,6.70
2019-05-06T12:02:54.899Z,6.00
2019-05-06T12:03:54.890Z,6.10
2019-05-06T12:04:54.871Z,5.70
2019-05-06T12:05:54.855Z,6.10
2019-05-06T12:07:10.037Z,5.30
2019-05-06T12:08:04.517Z,5.10
2019-05-06T12:08:54.810Z,5.30
2019-05-06T12:09:54.820Z,4.70
2019-05-06T12:10:54.790Z,4.80
2019-05-06T12:11:54.767Z,5.20
2019-05-06T12:12:54.751Z,5.10
2019-05-06T12:13:54.734Z,5.20
2019-05-06T12:14:54.721Z,5.10
2019-05-06T12:15:54.711Z,4.60
2019-05-06T12:16:55.245Z,5.20
2019-05-06T12:17:54.673Z,5.10
2019-05-06T12:18:54.692Z,6.10
2019-05-06T12:19:54.640Z,6.30
2019-05-06T12:21:07.904Z,7.00
2019-05-06T12:21:54.612Z,6.60
2019-05-06T12:22:54.593Z,7.10
2019-05-06T12:23:54.577Z,7.20
2019-05-06T12:24:54.563Z,7.70
2019-05-06T12:25:54.564Z,7.50
2019-05-06T12:26:54.537Z,6.90
2019-05-06T12:27:54.525Z,7.00
2019-05-06T12:28:54.504Z,6.70
2019-05-06T12:29:54.492Z,6.80
2019-05-06T12:30:54.469Z,6.90
2019-05-06T12:31:54.460Z,6.50
2019-05-06T12:32:54.437Z,6.30
2019-05-06T12:33:54.429Z,7.30
2019-05-06T12:34:54.414Z,8.60
2019-05-06T12:35:54.395Z,7.60
2019-05-06T12:36:54.376Z,8.80
2019-05-06T12:37:54.377Z,7.70
2019-05-06T12:38:54.341Z,7.40
2019-05-06T12:39:54.334Z,7.00
2019-05-06T12:40:54.324Z,6.70
2019-05-06T12:41:54.296Z,6.70
2019-05-06T12:42:54.278Z,6.80
2019-05-06T12:43:54.263Z,7.00
2019-05-06T12:44:54.246Z,7.00
2019-05-06T12:45:54.229Z,7.30
2019-05-06T12:46:54.216Z,7.00
2019-05-06T12:47:54.199Z,7.60
2019-05-06T12:48:54.183Z,7.50
2019-05-06T12:49:54.166Z,7.90
2019-05-06T12:50:54.150Z,7.60
2019-05-06T12:51:54.134Z,7.70
2019-05-06T12:52:57.545Z,7.40
2019-05-06T12:53:54.101Z,7.60
2019-05-06T12:55:06.833Z,8.20
2019-05-06T12:55:54.070Z,8.30
2019-05-06T12:56:54.058Z,8.00
2019-05-06T12:57:54.060Z,8.00
2019-05-06T12:58:54.030Z,7.90
2019-05-06T12:59:54.021Z,9.00
2019-05-06T13:00:54.458Z,8.60
2019-05-06T13:01:54.249Z,7.90
2019-05-06T13:02:53.950Z,9.00
2019-05-06T13:03:53.932Z,7.40
2019-05-06T13:04:59.652Z,7.50
2019-05-06T13:05:53.906Z,7.90
2019-05-06T13:06:53.890Z,8.40
2019-05-06T13:07:53.868Z,8.30
2019-05-06T13:09:01.467Z,7.90
2019-05-06T13:09:53.833Z,7.20
2019-05-06T13:10:53.826Z,7.30
2019-05-06T13:11:53.799Z,8.10